createdAt,value
2019-04-28T00:00:05.374Z,93
2019-04-28T00:01:05.831Z,94
2019-04-28T00:02:05.553Z,94
2019-04-28T00:03:05.404Z,94
2019-04-28T00:12:16.005Z,94
2019-04-28T00:12:25.141Z,94
2019-04-28T00:13:24.625Z,94
2019-04-28T00:14:24.781Z,94
2019-04-28T00:15:25.052Z,94
2019-04-28T00:16:24.908Z,94
2019-04-28T00:17:25.342Z,94
2019-04-28T00:18:25.062Z,94
2019-04-28T00:19:24.631Z,94
2019-04-28T00:20:24.877Z,94
2019-04-28T00:21:26.106Z,94
2019-04-28T00:22:25.235Z,94
2019-04-28T00:23:24.838Z,94
2019-04-28T00:24:25.183Z,94
2019-04-28T00:25:24.743Z,94
2019-04-28T00:26:24.697Z,94
2019-04-28T00:27:24.772Z,94
2019-04-28T00:28:24.683Z,94
2019-04-28T00:29:37.263Z,94
2019-04-28T00:30:25.650Z,94
2019-04-28T00:31:24.736Z,94
2019-04-28T00:32:24.707Z,94
2019-04-28T00:33:24.718Z,94
2019-04-28T00:34:24.893Z,94
2019-04-28T00:35:24.779Z,94
2019-04-28T00:36:25.124Z,94
2019-04-28T00:37:24.696Z,94
2019-04-28T00:38:24.680Z,94
2019-04-28T00:39:25.116Z,94
2019-04-28T00:40:24.964Z,94
2019-04-28T00:41:25.169Z,94
2019-04-28T00:42:25.124Z,94
2019-04-28T00:43:24.723Z,94
2019-04-28T00:44:24.957Z,94
2019-04-28T00:45:25.356Z,94
2019-04-28T00:46:24.936Z,94
2019-04-28T00:47:25.534Z,94
2019-04-28T00:48:25.144Z,94
2019-04-28T00:49:24.762Z,94
2019-04-28T00:50:24.689Z,94
2019-04-28T00:51:25.195Z,94
2019-04-28T00:52:24.813Z,94
2019-04-28T00:53:25.252Z,94
2019-04-28T00:54:24.965Z,94
2019-04-28T00:55:24.782Z,94
2019-04-28T00:56:25.468Z,94
2019-04-28T00:57:24.832Z,94
2019-04-28T00:58:24.925Z,94
2019-04-28T00:59:24.899Z,94
2019-04-28T01:00:25.171Z,94
2019-04-28T01:01:25.176Z,94
2019-04-28T01:02:24.978Z,94
2019-04-28T01:03:25.189Z,94
2019-04-28T01:04:24.792Z,94
2019-04-28T01:05:24.994Z,94
2019-04-28T01:06:25.511Z,94
2019-04-28T01:07:25.248Z,94
2019-04-28T01:08:25.543Z,94
2019-04-28T01:09:24.823Z,94
2019-04-28T01:10:24.922Z,94
2019-04-28T01:11:24.742Z,94
2019-04-28T01:12:24.882Z,94
2019-04-28T01:13:24.960Z,94
2019-04-28T01:14:25.469Z,94
2019-04-28T01:15:24.786Z,94
2019-04-28T01:16:24.801Z,94
2019-04-28T01:17:24.982Z,94
2019-04-28T01:18:24.987Z,94
2019-04-28T01:19:24.747Z,94
2019-04-28T01:20:24.765Z,94
2019-04-28T01:21:24.972Z,94
2019-04-28T01:22:25.894Z,94
2019-04-28T01:23:24.749Z,94
2019-04-28T01:24:26.845Z,95
2019-04-28T01:25:24.988Z,95
2019-04-28T01:26:24.952Z,95
2019-04-28T01:27:25.208Z,95
2019-04-28T01:28:24.862Z,95
2019-04-28T01:29:24.798Z,95
2019-04-28T01:30:24.804Z,95
2019-04-28T01:31:25.212Z,95
2019-04-28T01:32:24.944Z,95
2019-04-28T01:33:25.206Z,95
2019-04-28T01:34:53.114Z,95
2019-04-28T01:35:25.219Z,95
2019-04-28T01:36:25.002Z,95
2019-04-28T01:37:25.227Z,95
2019-04-28T01:38:25.290Z,95
2019-04-28T01:39:25.106Z,95
2019-04-28T01:40:25.187Z,95
2019-04-28T01:41:24.752Z,95
2019-04-28T01:42:24.857Z,95
2019-04-28T01:43:24.825Z,95
2019-04-28T01:44:24.766Z,95
2019-04-28T01:45:25.004Z,95
2019-04-28T01:46:25.007Z,95
2019-04-28T01:47:24.975Z,95
2019-04-28T01:48:25.292Z,95
2019-04-28T01:49:25.263Z,95
2019-04-28T01:50:24.816Z,95
2019-04-28T01:51:25.353Z,95
2019-04-28T01:52:25.221Z,95
2019-04-28T02:03:11.886Z,95
2019-04-28T02:03:22.148Z,95
2019-04-28T02:04:21.607Z,95
2019-04-28T02:05:21.929Z,95
2019-04-28T02:06:21.794Z,95
2019-04-28T02:07:21.590Z,95
2019-04-28T02:08:22.022Z,95
2019-04-28T02:09:22.274Z,95
2019-04-28T02:10:21.834Z,95
2019-04-28T02:11:22.078Z,95
2019-04-28T02:12:21.647Z,95
2019-04-28T02:13:21.623Z,94
2019-04-28T02:14:22.111Z,94
2019-04-28T02:15:21.847Z,94
2019-04-28T02:16:22.068Z,94
2019-04-28T02:17:21.565Z,94
2019-04-28T02:18:21.631Z,94
2019-04-28T02:19:21.675Z,94
2019-04-28T02:20:21.873Z,94
2019-04-28T02:21:21.972Z,94
2019-04-28T02:22:22.040Z,94
2019-04-28T02:23:21.825Z,94
2019-04-28T02:24:22.066Z,94
2019-04-28T02:25:21.868Z,94
2019-04-28T02:26:21.664Z,94
2019-04-28T02:27:21.717Z,94
2019-04-28T02:28:22.028Z,94
2019-04-28T02:29:21.611Z,94
2019-04-28T02:30:32.510Z,94
2019-04-28T02:31:24.386Z,94
2019-04-28T02:32:24.310Z,94
2019-04-28T02:33:21.664Z,94
2019-04-28T02:34:22.189Z,94
2019-04-28T02:35:22.650Z,94
2019-04-28T02:36:22.170Z,94
2019-04-28T02:37:22.176Z,94
2019-04-28T02:38:21.690Z,94
2019-04-28T02:39:21.666Z,94
2019-04-28T02:40:22.146Z,94
2019-04-28T02:41:21.863Z,94
2019-04-28T02:42:22.196Z,94
2019-04-28T02:43:21.725Z,94
2019-04-28T02:44:23.607Z,94
2019-04-28T02:45:22.146Z,94
2019-04-28T02:46:21.878Z,94
2019-04-28T02:47:22.126Z,94
2019-04-28T02:48:22.182Z,94
2019-04-28T02:49:21.647Z,94
2019-04-28T02:50:21.709Z,94
2019-04-28T02:51:21.915Z,94
2019-04-28T02:52:21.779Z,94
2019-04-28T02:53:21.761Z,94
2019-04-28T02:54:22.133Z,94
2019-04-28T02:55:21.879Z,94
2019-04-28T02:56:21.776Z,94
2019-04-28T02:57:22.242Z,94
2019-04-28T02:58:22.566Z,94
2019-04-28T02:59:22.182Z,94
2019-04-28T03:00:22.002Z,94
2019-04-28T03:01:26.168Z,94
2019-04-28T03:02:22.009Z,94
2019-04-28T03:03:22.003Z,94
2019-04-28T03:04:21.686Z,94
2019-04-28T03:05:22.286Z,94
2019-04-28T03:06:21.977Z,94
2019-04-28T03:07:22.025Z,94
2019-04-28T03:08:22.239Z,94
2019-04-28T03:09:21.999Z,94
2019-04-28T03:10:21.840Z,94
2019-04-28T03:11:23.207Z,94
2019-04-28T03:12:22.023Z,94
2019-04-28T03:13:21.819Z,94
2019-04-28T03:14:22.021Z,94
2019-04-28T03:15:21.901Z,94
2019-04-28T03:16:23.085Z,94
2019-04-28T03:17:22.516Z,94
2019-04-28T03:18:21.826Z,94
2019-04-28T03:19:21.873Z,94
2019-04-28T03:20:21.887Z,94
2019-04-28T03:21:21.973Z,94
2019-04-28T03:22:21.781Z,94
2019-04-28T03:23:21.892Z,94
2019-04-28T03:24:22.143Z,94
2019-04-28T03:25:21.886Z,94
2019-04-28T03:26:21.815Z,94
2019-04-28T03:27:22.343Z,94
2019-04-28T03:28:21.744Z,94
2019-04-28T03:29:21.823Z,94
2019-04-28T03:30:22.945Z,94
2019-04-28T03:31:48.354Z,94
2019-04-28T03:32:32.674Z,94
2019-04-28T03:33:25.141Z,94
2019-04-28T03:34:23.113Z,94
2019-04-28T03:35:23.042Z,94
2019-04-28T03:36:23.419Z,94
2019-04-28T03:37:24.008Z,94
2019-04-28T03:38:21.770Z,94
2019-04-28T03:39:21.856Z,94
2019-04-28T03:40:21.963Z,94
2019-04-28T03:41:22.292Z,94
2019-04-28T03:42:22.015Z,94
2019-04-28T03:43:21.885Z,94
2019-04-28T03:44:21.790Z,94
2019-04-28T03:45:22.851Z,94
2019-04-28T03:46:21.816Z,94
2019-04-28T03:47:22.666Z,95
2019-04-28T03:48:21.987Z,95
2019-04-28T03:49:22.505Z,95
2019-04-28T03:50:22.099Z,95
2019-04-28T03:51:22.529Z,95
2019-04-28T03:52:21.929Z,95
2019-04-28T03:53:22.265Z,95
2019-04-28T03:54:21.853Z,95
2019-04-28T03:55:22.302Z,95
2019-04-28T03:56:21.898Z,95
2019-04-28T03:57:22.194Z,95
2019-04-28T03:58:24.247Z,95
2019-04-28T03:59:22.275Z,95
2019-04-28T04:00:22.092Z,95
2019-04-28T04:01:21.958Z,95
2019-04-28T04:02:23.748Z,95
2019-04-28T04:03:22.486Z,95
2019-04-28T04:04:22.028Z,95
2019-04-28T04:05:22.099Z,95
2019-04-28T04:06:22.611Z,95
2019-04-28T04:07:22.465Z,95
2019-04-28T04:08:21.908Z,95
2019-04-28T04:09:24.198Z,95
2019-04-28T04:10:22.374Z,95
2019-04-28T04:11:22.349Z,95
2019-04-28T04:12:21.912Z,95
2019-04-28T04:13:22.098Z,95
2019-04-28T04:14:22.344Z,95
2019-04-28T04:15:22.100Z,95
2019-04-28T04:16:22.303Z,95
2019-04-28T04:17:22.163Z,95
2019-04-28T04:18:21.916Z,95
2019-04-28T04:19:22.353Z,95
2019-04-28T04:20:23.687Z,95
2019-04-28T04:21:23.610Z,95
2019-04-28T04:22:22.052Z,95
2019-04-28T04:23:23.304Z,95
2019-04-28T04:24:21.880Z,95
2019-04-28T04:25:22.317Z,95
2019-04-28T04:26:22.076Z,95
2019-04-28T04:27:22.154Z,95
2019-04-28T04:28:22.061Z,95
2019-04-28T04:29:22.018Z,95
2019-04-28T04:30:21.891Z,96
2019-04-28T04:31:22.168Z,96
2019-04-28T04:32:24.301Z,96
2019-04-28T04:33:22.123Z,96
2019-04-28T04:34:22.303Z,96
2019-04-28T04:35:21.945Z,96
2019-04-28T04:36:21.907Z,96
2019-04-28T04:37:21.958Z,96
2019-04-28T04:38:21.992Z,96
2019-04-28T04:39:22.383Z,96
2019-04-28T04:40:22.011Z,96
2019-04-28T04:41:22.156Z,96
2019-04-28T04:42:22.362Z,96
2019-04-28T04:43:23.316Z,96
2019-04-28T04:44:21.928Z,96
2019-04-28T04:45:22.170Z,96
2019-04-28T04:46:22.556Z,96
2019-04-28T04:47:22.860Z,96
2019-04-28T04:48:21.946Z,96
2019-04-28T04:49:22.054Z,96
2019-04-28T04:50:21.976Z,96
2019-04-28T04:51:22.599Z,96
2019-04-28T04:52:21.955Z,96
2019-04-28T04:53:21.944Z,96
2019-04-28T04:54:21.936Z,96
2019-04-28T04:55:22.399Z,96
2019-04-28T04:56:22.054Z,96
2019-04-28T04:57:22.123Z,96
2019-04-28T04:58:22.408Z,96
2019-04-28T04:59:22.037Z,96
2019-04-28T05:00:22.314Z,96
2019-04-28T05:01:21.994Z,96
2019-04-28T05:02:26.432Z,96
2019-04-28T05:03:22.005Z,96
2019-04-28T05:04:21.947Z,96
2019-04-28T05:05:21.906Z,96
2019-04-28T05:06:22.305Z,96
2019-04-28T05:07:22.510Z,96
2019-04-28T05:08:21.923Z,96
2019-04-28T05:09:22.299Z,96
2019-04-28T05:10:21.901Z,96
2019-04-28T05:11:32.144Z,96
2019-04-28T05:12:21.918Z,96
2019-04-28T05:13:22.179Z,96
2019-04-28T05:14:22.197Z,96
2019-04-28T05:15:22.077Z,96
2019-04-28T05:16:22.364Z,96
2019-04-28T05:17:22.377Z,96
2019-04-28T05:18:22.194Z,96
2019-04-28T05:19:22.307Z,96
2019-04-28T05:20:22.351Z,96
2019-04-28T05:21:33.381Z,96
2019-04-28T05:22:22.181Z,96
2019-04-28T05:23:22.464Z,96
2019-04-28T05:24:22.050Z,96
2019-04-28T05:25:24.533Z,96
2019-04-28T05:26:22.194Z,96
2019-04-28T05:27:25.473Z,96
2019-04-28T05:28:21.969Z,96
2019-04-28T05:29:26.492Z,96
2019-04-28T05:30:21.951Z,96
2019-04-28T05:31:24.189Z,96
2019-04-28T05:32:22.045Z,96
2019-04-28T05:33:23.212Z,96
2019-04-28T05:34:23.937Z,96
2019-04-28T05:35:25.099Z,96
2019-04-28T05:36:22.424Z,96
2019-04-28T05:37:22.197Z,96
2019-04-28T05:38:22.421Z,96
2019-04-28T05:39:22.610Z,96
2019-04-28T05:40:22.217Z,96
2019-04-28T05:41:21.959Z,96
2019-04-28T05:42:22.376Z,96
2019-04-28T05:43:22.473Z,96
2019-04-28T05:44:22.037Z,96
2019-04-28T05:45:22.014Z,96
2019-04-28T05:46:22.020Z,96
2019-04-28T05:47:22.380Z,96
2019-04-28T05:48:22.402Z,96
2019-04-28T05:49:21.962Z,96
2019-04-28T05:50:22.380Z,96
2019-04-28T05:51:22.421Z,96
2019-04-28T05:52:22.457Z,96
2019-04-28T05:53:22.436Z,96
2019-04-28T05:54:22.388Z,96
2019-04-28T05:55:22.887Z,96
2019-04-28T05:56:22.244Z,96
2019-04-28T05:57:22.060Z,96
2019-04-28T05:58:22.300Z,96
2019-04-28T05:59:22.036Z,96
2019-04-28T06:00:22.263Z,96
2019-04-28T06:01:22.082Z,96
2019-04-28T06:02:22.159Z,95
2019-04-28T06:03:22.046Z,95
2019-04-28T06:04:21.999Z,95
2019-04-28T06:05:22.049Z,95
2019-04-28T06:06:22.267Z,95
2019-04-28T06:07:22.096Z,95
2019-04-28T06:08:22.941Z,95
2019-04-28T06:09:22.078Z,94
2019-04-28T06:10:22.064Z,94
2019-04-28T06:11:22.054Z,94
2019-04-28T06:12:22.277Z,94
2019-04-28T06:13:22.189Z,94
2019-04-28T06:14:22.126Z,93
2019-04-28T06:15:22.479Z,93
2019-04-28T06:16:22.222Z,93
2019-04-28T06:17:22.091Z,94
2019-04-28T06:18:50.654Z,94
2019-04-28T06:19:22.082Z,93
2019-04-28T06:20:22.267Z,93
2019-04-28T06:21:22.285Z,93
2019-04-28T06:22:22.150Z,93
2019-04-28T06:23:22.080Z,93
2019-04-28T06:24:22.534Z,92
2019-04-28T06:25:22.652Z,92
2019-04-28T06:26:22.469Z,92
2019-04-28T06:27:22.104Z,91
2019-04-28T06:28:22.539Z,91
2019-04-28T06:29:22.344Z,91
2019-04-28T06:30:22.077Z,90
2019-04-28T06:31:22.482Z,90
2019-04-28T06:32:22.200Z,90
2019-04-28T06:33:22.263Z,90
2019-04-28T06:34:22.164Z,90
2019-04-28T06:35:22.070Z,90
2019-04-28T06:36:22.103Z,90
2019-04-28T06:37:23.041Z,89
2019-04-28T06:38:22.536Z,89
2019-04-28T06:39:22.147Z,89
2019-04-28T06:40:22.490Z,89
2019-04-28T06:41:22.111Z,89
2019-04-28T06:42:22.297Z,89
2019-04-28T06:43:22.501Z,89
2019-04-28T06:44:22.509Z,89
2019-04-28T06:45:22.529Z,88
2019-04-28T06:46:22.295Z,88
2019-04-28T06:47:24.342Z,88
2019-04-28T06:48:25.018Z,88
2019-04-28T06:49:22.576Z,88
2019-04-28T06:50:22.125Z,88
2019-04-28T06:51:22.373Z,88
2019-04-28T06:52:22.876Z,88
2019-04-28T06:53:22.692Z,88
2019-04-28T06:54:22.607Z,88
2019-04-28T06:55:22.234Z,87
2019-04-28T06:56:22.154Z,87
2019-04-28T07:00:41.237Z,87
2019-04-28T07:00:48.927Z,87
2019-04-28T07:01:49.391Z,86
2019-04-28T07:02:48.949Z,86
2019-04-28T07:03:49.142Z,86
2019-04-28T07:05:00.721Z,86
2019-04-28T07:05:49.036Z,86
2019-04-28T07:06:48.956Z,86
2019-04-28T07:07:48.927Z,85
2019-04-28T07:08:48.932Z,85
2019-04-28T07:09:50.631Z,85
2019-04-28T07:10:48.908Z,85
2019-04-28T07:11:49.827Z,85
2019-04-28T07:12:49.367Z,86
2019-04-28T07:13:48.962Z,86
2019-04-28T07:14:49.096Z,86
2019-04-28T07:15:48.923Z,86
2019-04-28T07:16:49.374Z,86
2019-04-28T07:17:48.941Z,86
2019-04-28T07:18:48.987Z,86
2019-04-28T07:19:49.115Z,86
2019-04-28T07:20:49.073Z,86
2019-04-28T07:21:49.108Z,86
2019-04-28T07:22:48.984Z,85
2019-04-28T07:23:48.981Z,85
2019-04-28T07:24:49.522Z,85
2019-04-28T07:25:49.196Z,85
2019-04-28T07:26:48.961Z,85
2019-04-28T07:27:49.409Z,85
2019-04-28T07:28:49.398Z,85
2019-04-28T07:29:49.038Z,85
2019-04-28T07:30:49.418Z,85
2019-04-28T07:31:49.395Z,85
2019-04-28T07:32:48.986Z,85
2019-04-28T07:33:49.054Z,85
2019-04-28T07:34:49.022Z,85
2019-04-28T07:35:49.263Z,84
2019-04-28T07:36:49.246Z,84
2019-04-28T07:37:48.986Z,84
2019-04-28T07:38:48.978Z,84
2019-04-28T07:39:49.385Z,84
2019-04-28T07:40:48.983Z,84
2019-04-28T07:41:49.026Z,84
2019-04-28T07:42:49.384Z,84
2019-04-28T07:43:48.978Z,84
2019-04-28T07:44:49.043Z,84
2019-04-28T07:46:42.046Z,84
2019-04-28T07:46:53.806Z,84
2019-04-28T07:47:54.029Z,84
2019-04-28T07:48:53.913Z,83
2019-04-28T07:49:53.925Z,83
2019-04-28T07:50:54.388Z,82
2019-04-28T07:51:54.323Z,82
2019-04-28T07:52:53.868Z,82
2019-04-28T07:53:54.054Z,82
2019-04-28T07:54:54.026Z,82
2019-04-28T07:55:53.898Z,82
2019-04-28T07:56:54.046Z,82
2019-04-28T07:57:54.264Z,82
2019-04-28T07:58:53.865Z,82
2019-04-28T07:59:53.822Z,82
2019-04-28T08:00:53.893Z,82
2019-04-28T08:01:54.241Z,82
2019-04-28T08:02:54.258Z,82
2019-04-28T08:03:54.324Z,81
2019-04-28T08:04:54.075Z,81
2019-04-28T08:05:54.591Z,81
2019-04-28T08:06:54.284Z,80
2019-04-28T08:07:53.957Z,80
2019-04-28T08:08:53.878Z,79
2019-04-28T08:09:53.893Z,79
2019-04-28T08:10:53.944Z,79
2019-04-28T08:11:53.922Z,80
2019-04-28T08:12:53.882Z,80
2019-04-28T08:13:54.054Z,80
2019-04-28T08:14:53.869Z,80
2019-04-28T08:15:53.867Z,80
2019-04-28T08:16:53.943Z,80
2019-04-28T08:17:54.347Z,80
2019-04-28T08:18:54.297Z,80
2019-04-28T08:19:53.944Z,80
2019-04-28T08:20:54.076Z,80
2019-04-28T08:21:54.076Z,79
2019-04-28T08:22:54.093Z,79
2019-04-28T08:23:54.358Z,79
2019-04-28T08:24:53.875Z,79
2019-04-28T08:25:54.056Z,79
2019-04-28T08:26:53.913Z,79
2019-04-28T08:27:53.954Z,79
2019-04-28T08:28:54.387Z,78
2019-04-28T08:29:58.312Z,78
2019-04-28T08:30:54.098Z,78
2019-04-28T08:31:54.063Z,78
2019-04-28T08:32:54.116Z,78
2019-04-28T08:34:01.336Z,78
2019-04-28T08:34:54.072Z,78
2019-04-28T08:35:54.123Z,78
2019-04-28T08:36:53.943Z,78
2019-04-28T08:37:54.005Z,78
2019-04-28T08:38:53.895Z,78
2019-04-28T08:39:53.941Z,78
2019-04-28T08:40:54.101Z,78
2019-04-28T08:41:54.341Z,77
2019-04-28T08:42:54.180Z,77
2019-04-28T08:43:54.013Z,77
2019-04-28T08:44:53.947Z,77
2019-04-28T08:45:54.087Z,77
2019-04-28T08:46:54.364Z,78
2019-04-28T08:47:54.459Z,78
2019-04-28T08:48:53.919Z,78
2019-04-28T08:49:53.920Z,77
2019-04-28T08:50:54.347Z,77
2019-04-28T08:51:54.174Z,75
2019-04-28T08:52:54.000Z,75
2019-04-28T08:53:54.002Z,75
2019-04-28T08:54:54.188Z,74
2019-04-28T08:55:53.927Z,74
2019-04-28T08:56:53.947Z,75
2019-04-28T08:57:53.946Z,75
2019-04-28T08:58:54.421Z,75
2019-04-28T08:59:53.983Z,74
2019-04-28T09:00:54.369Z,74
2019-04-28T09:01:53.984Z,74
2019-04-28T09:02:54.009Z,75
2019-04-28T09:03:53.995Z,75
2019-04-28T09:04:54.001Z,76
2019-04-28T09:05:54.647Z,76
2019-04-28T09:06:54.184Z,76
2019-04-28T09:07:54.414Z,76
2019-04-28T09:08:53.969Z,76
2019-04-28T09:09:54.443Z,75
2019-04-28T09:10:54.220Z,75
2019-04-28T09:11:54.024Z,75
2019-04-28T09:12:54.005Z,75
2019-04-28T09:13:54.450Z,75
2019-04-28T09:14:54.438Z,74
2019-04-28T09:15:54.210Z,74
2019-04-28T09:16:54.612Z,74
2019-04-28T09:17:53.974Z,74
2019-04-28T09:18:54.340Z,74
2019-04-28T09:19:54.054Z,75
2019-04-28T09:20:54.139Z,75
2019-04-28T09:21:54.158Z,75
2019-04-28T09:22:53.977Z,74
2019-04-28T09:23:54.002Z,74
2019-04-28T09:24:54.068Z,73
2019-04-28T09:25:54.178Z,73
2019-04-28T09:26:54.200Z,73
2019-04-28T09:27:54.040Z,73
2019-04-28T09:28:54.461Z,73
2019-04-28T09:29:54.210Z,72
2019-04-28T09:30:54.055Z,72
2019-04-28T09:31:54.241Z,72
2019-04-28T09:32:54.201Z,71
2019-04-28T09:33:54.264Z,71
2019-04-28T09:34:54.087Z,71
2019-04-28T09:35:54.344Z,70
2019-04-28T09:36:54.056Z,70
2019-04-28T09:37:54.073Z,70
2019-04-28T09:38:54.143Z,70
2019-04-28T09:39:54.461Z,70
2019-04-28T09:40:54.033Z,70
2019-04-28T09:41:54.070Z,70
2019-04-28T09:42:54.253Z,70
2019-04-28T09:43:54.470Z,70
2019-04-28T09:44:54.021Z,70
2019-04-28T09:45:54.264Z,69
2019-04-28T09:46:54.429Z,69
2019-04-28T09:47:54.061Z,66
2019-04-28T09:48:54.259Z,66
2019-04-28T09:49:54.619Z,66
2019-04-28T09:50:54.146Z,67
2019-04-28T09:51:54.441Z,67
2019-04-28T09:52:54.555Z,68
2019-04-28T09:53:54.096Z,68
2019-04-28T09:54:54.473Z,68
2019-04-28T09:55:54.060Z,67
2019-04-28T09:56:56.463Z,67
2019-04-28T09:57:54.850Z,67
2019-04-28T09:58:54.164Z,67
2019-04-28T09:59:54.544Z,67
2019-04-28T10:00:55.121Z,67
2019-04-28T10:01:54.319Z,67
2019-04-28T10:02:54.260Z,67
2019-04-28T10:03:54.199Z,67
2019-04-28T10:04:54.236Z,67
2019-04-28T10:05:54.630Z,66
2019-04-28T10:06:54.516Z,66
2019-04-28T10:07:54.325Z,66
2019-04-28T10:08:54.095Z,66
2019-04-28T10:09:54.587Z,66
2019-04-28T10:10:54.506Z,68
2019-04-28T10:11:54.143Z,68
2019-04-28T10:12:54.537Z,68
2019-04-28T10:13:56.872Z,68
2019-04-28T10:14:54.587Z,68
2019-04-28T10:15:54.360Z,69
2019-04-28T10:16:54.172Z,69
2019-04-28T10:17:54.446Z,69
2019-04-28T10:18:54.842Z,69
2019-04-28T10:19:54.229Z,69
2019-04-28T10:20:54.456Z,68
2019-04-28T10:21:54.928Z,68
2019-04-28T10:22:54.335Z,68
2019-04-28T10:23:54.257Z,67
2019-04-28T10:24:54.127Z,67
2019-04-28T10:25:54.240Z,66
2019-04-28T10:26:54.328Z,66
2019-04-28T10:27:54.373Z,66
2019-04-28T10:28:54.153Z,66
2019-04-28T10:29:54.188Z,66
2019-04-28T10:30:54.554Z,67
2019-04-28T10:31:55.256Z,67
2019-04-28T10:32:54.165Z,67
2019-04-28T10:33:54.623Z,68
2019-04-28T10:34:55.210Z,68
2019-04-28T10:35:55.068Z,68
2019-04-28T10:36:54.124Z,69
2019-04-28T10:37:54.701Z,69
2019-04-28T10:38:54.145Z,69
2019-04-28T10:39:54.201Z,69
2019-04-28T10:40:54.130Z,69
2019-04-28T10:41:54.396Z,69
2019-04-28T10:42:54.557Z,69
2019-04-28T10:43:54.189Z,70
2019-04-28T10:44:54.189Z,70
2019-04-28T10:45:54.850Z,70
2019-04-28T10:46:54.179Z,71
2019-04-28T10:47:54.210Z,71
2019-04-28T10:48:54.166Z,72
2019-04-28T10:49:54.257Z,72
2019-04-28T10:50:54.469Z,72
2019-04-28T10:51:59.096Z,72
2019-04-28T10:52:54.286Z,72
2019-04-28T10:53:54.251Z,73
2019-04-28T10:54:54.203Z,73
2019-04-28T10:55:54.660Z,73
2019-04-28T10:56:54.216Z,70
2019-04-28T10:57:54.626Z,70
2019-04-28T10:58:54.182Z,69
2019-04-28T10:59:54.321Z,69
2019-04-28T11:00:54.390Z,69
2019-04-28T11:01:54.239Z,69
2019-04-28T11:02:54.253Z,69
2019-04-28T11:03:54.629Z,69
2019-04-28T11:04:54.184Z,67
2019-04-28T11:05:54.323Z,67
2019-04-28T11:06:54.574Z,68
2019-04-28T11:07:54.448Z,68
2019-04-28T11:08:54.173Z,68
2019-04-28T11:09:54.181Z,67
2019-04-28T11:10:54.433Z,67
2019-04-28T11:11:54.208Z,69
2019-04-28T11:12:54.387Z,69
2019-04-28T11:13:54.191Z,69
2019-04-28T11:14:54.259Z,68
2019-04-28T11:15:54.323Z,68
2019-04-28T11:16:54.411Z,69
2019-04-28T11:17:54.297Z,69
2019-04-28T11:18:54.208Z,69
2019-04-28T11:19:54.697Z,69
2019-04-28T11:20:54.462Z,69
2019-04-28T11:21:54.259Z,67
2019-04-28T11:22:54.613Z,67
2019-04-28T11:23:54.810Z,67
2019-04-28T11:24:54.378Z,65
2019-04-28T11:25:54.435Z,65
2019-04-28T11:26:54.445Z,65
2019-04-28T11:27:55.488Z,65
2019-04-28T11:28:54.656Z,65
2019-04-28T11:29:54.488Z,64
2019-04-28T11:30:54.403Z,64
2019-04-28T11:31:54.337Z,62
2019-04-28T11:32:54.410Z,62
2019-04-28T11:33:54.255Z,62
2019-04-28T11:34:54.225Z,63
2019-04-28T11:35:54.891Z,63
2019-04-28T11:36:54.286Z,63
2019-04-28T11:37:54.785Z,62
2019-04-28T11:38:54.668Z,62
2019-04-28T11:39:54.496Z,63
2019-04-28T11:40:54.185Z,63
2019-04-28T11:41:54.829Z,63
2019-04-28T11:42:54.291Z,64
2019-04-28T11:43:54.320Z,64
2019-04-28T11:44:54.695Z,61
2019-04-28T11:45:55.276Z,61
2019-04-28T11:46:56.254Z,61
2019-04-28T11:47:55.003Z,62
2019-04-28T11:48:54.778Z,62
2019-04-28T11:49:55.131Z,64
2019-04-28T11:50:56.145Z,64
2019-04-28T11:51:54.267Z,64
2019-04-28T11:52:54.589Z,64
2019-04-28T11:53:54.506Z,64
2019-04-28T11:54:54.304Z,64
2019-04-28T11:55:55.384Z,64
2019-04-28T11:56:54.348Z,64
2019-04-28T11:57:54.327Z,64
2019-04-28T11:58:54.525Z,64
2019-04-28T11:59:54.649Z,64
2019-04-28T12:01:05.122Z,64
2019-04-28T12:01:54.566Z,64
2019-04-28T12:02:54.765Z,64
2019-04-28T12:03:54.787Z,64
2019-04-28T12:04:54.744Z,64
2019-04-28T12:05:55.045Z,64
2019-04-28T12:06:54.828Z,64
2019-04-28T12:07:54.830Z,64
2019-04-28T12:08:54.783Z,64
2019-04-28T12:10:03.792Z,64
2019-04-28T12:10:55.004Z,64
2019-04-28T12:11:54.781Z,64
2019-04-28T12:12:54.891Z,64
2019-04-28T12:13:54.736Z,64
2019-04-28T12:14:54.645Z,64
2019-04-28T12:15:54.565Z,63
2019-04-28T12:16:54.321Z,63
2019-04-28T12:17:54.920Z,63
2019-04-28T12:18:54.747Z,63
2019-04-28T12:19:54.282Z,63
2019-04-28T12:20:55.655Z,62
2019-04-28T12:21:54.511Z,62
2019-04-28T12:22:54.271Z,62
2019-04-28T12:23:54.757Z,62
2019-04-28T12:24:54.561Z,62
2019-04-28T12:25:55.381Z,61
2019-04-28T12:26:54.513Z,61
2019-04-28T12:27:54.532Z,59
2019-04-28T12:28:54.571Z,59
2019-04-28T12:29:54.679Z,59
2019-04-28T12:30:54.822Z,60
2019-04-28T12:31:54.553Z,60
2019-04-28T12:32:54.816Z,59
2019-04-28T12:33:54.708Z,59
2019-04-28T12:34:54.771Z,59
2019-04-28T12:35:54.626Z,60
2019-04-28T12:36:54.767Z,60
2019-04-28T12:37:54.366Z,60
2019-04-28T12:38:54.796Z,58
2019-04-28T12:39:54.532Z,58
2019-04-28T12:40:54.386Z,58
2019-04-28T12:41:54.561Z,58
2019-04-28T12:42:54.344Z,58
2019-04-28T12:43:54.376Z,61
2019-04-28T12:44:54.377Z,61
2019-04-28T12:45:54.335Z,62
2019-04-28T12:46:54.767Z,62
2019-04-28T12:47:54.364Z,62
2019-04-28T12:48:54.352Z,64
2019-04-28T12:49:54.598Z,64
2019-04-28T12:50:54.490Z,65
2019-04-28T12:51:54.389Z,65
2019-04-28T12:52:54.561Z,65
2019-04-28T12:53:54.553Z,66
2019-04-28T12:54:54.795Z,66
2019-04-28T12:55:54.540Z,67
2019-04-28T12:56:56.148Z,67
2019-04-28T12:57:54.513Z,67
2019-04-28T12:58:56.251Z,67
2019-04-28T12:59:58.229Z,67
2019-04-28T13:01:13.538Z,66
2019-04-28T13:02:01.068Z,66
2019-04-28T13:02:59.103Z,66
2019-04-28T13:03:54.383Z,66
2019-04-28T13:04:54.571Z,66
2019-04-28T13:06:00.745Z,66
2019-04-28T13:06:55.219Z,67
2019-04-28T13:07:54.369Z,67
2019-04-28T13:08:54.397Z,67
2019-04-28T13:09:54.347Z,67
2019-04-28T13:10:54.427Z,67
2019-04-28T13:11:54.390Z,66
2019-04-28T13:12:54.831Z,66
2019-04-28T13:13:54.868Z,67
2019-04-28T13:14:54.470Z,67
2019-04-28T13:15:54.499Z,67
2019-04-28T13:16:54.631Z,65
2019-04-28T13:17:54.500Z,65
2019-04-28T13:18:55.147Z,65
2019-04-28T13:19:54.702Z,65
2019-04-28T13:20:54.644Z,65
2019-04-28T13:21:54.631Z,65
2019-04-28T13:22:54.916Z,65
2019-04-28T13:23:54.465Z,63
2019-04-28T13:24:54.501Z,63
2019-04-28T13:25:54.573Z,63
2019-04-28T13:26:54.534Z,62
2019-04-28T13:27:55.136Z,62
2019-04-28T13:28:54.922Z,61
2019-04-28T13:29:54.500Z,61
2019-04-28T13:30:54.459Z,61
2019-04-28T13:31:54.426Z,59
2019-04-28T13:33:11.118Z,59
2019-04-28T13:33:56.294Z,59
2019-04-28T13:34:56.201Z,59
2019-04-28T13:35:55.124Z,59
2019-04-28T13:36:54.779Z,59
2019-04-28T13:37:54.738Z,59
2019-04-28T13:38:54.494Z,59
2019-04-28T13:39:54.515Z,60
2019-04-28T13:40:54.554Z,60
2019-04-28T13:41:54.512Z,58
2019-04-28T13:43:11.264Z,58
2019-04-28T13:43:54.510Z,58
2019-04-28T13:44:54.733Z,58
2019-04-28T13:45:54.531Z,58
2019-04-28T13:46:54.557Z,56
2019-04-28T13:47:54.503Z,56
2019-04-28T13:48:54.527Z,56
2019-04-28T13:49:54.539Z,58
2019-04-28T13:50:55.017Z,58
2019-04-28T13:51:54.929Z,56
2019-04-28T13:52:54.760Z,56
2019-04-28T13:53:54.492Z,56
2019-04-28T13:54:54.918Z,56
2019-04-28T13:55:54.718Z,56
2019-04-28T13:56:54.993Z,54
2019-04-28T13:57:54.513Z,54
2019-04-28T13:58:55.586Z,54
2019-04-28T13:59:54.587Z,53
2019-04-28T14:00:55.003Z,53
2019-04-28T14:01:54.964Z,53
2019-04-28T14:02:54.748Z,53
2019-04-28T14:03:55.018Z,53
2019-04-28T14:04:54.521Z,54
2019-04-28T14:05:54.837Z,54
2019-04-28T14:06:54.577Z,54
2019-04-28T14:07:55.092Z,54
2019-04-28T14:08:54.567Z,54
2019-04-28T14:09:54.633Z,51
2019-04-28T14:10:55.020Z,51
2019-04-28T14:11:54.572Z,51
2019-04-28T14:12:54.575Z,53
2019-04-28T14:13:54.612Z,53
2019-04-28T14:14:54.955Z,49
2019-04-28T14:15:54.627Z,49
2019-04-28T14:16:54.794Z,49
2019-04-28T14:17:54.947Z,49
2019-04-28T14:18:54.646Z,49
2019-04-28T14:19:54.990Z,52
2019-04-28T14:20:54.870Z,52
2019-04-28T14:21:54.490Z,52
2019-04-28T14:22:54.533Z,53
2019-04-28T14:23:54.543Z,53
2019-04-28T14:24:54.773Z,54
2019-04-28T14:25:54.604Z,54
2019-04-28T14:26:54.582Z,54
2019-04-28T14:27:54.593Z,53
2019-04-28T14:28:55.002Z,53
2019-04-28T14:29:55.045Z,54
2019-04-28T14:30:54.658Z,54
2019-04-28T14:31:54.681Z,54
2019-04-28T14:32:55.047Z,53
2019-04-28T14:33:55.083Z,53